sensor_id;sensor_type;location;lat;lon;timestamp;temperature;humidity
11511;DHT22;5812;48.864;9.190;2022-10-18T00:00:38;14.10;99.90
11511;DHT22;5812;48.864;9.190;2022-10-18T00:03:04;14.00;99.90
11511;DHT22;5812;48.864;9.190;2022-10-18T00:05:30;14.20;99.90
11511;DHT22;5812;48.864;9.190;2022-10-18T00:07:55;14.20;99.90
11511;DHT22;5812;48.864;9.190;2022-10-18T00:10:21;14.10;99.90
11511;DHT22;5812;48.864;9.190;2022-10-18T00:12:49;14.30;99.90
11511;DHT22;5812;48.864;9.190;2022-10-18T00:15:14;14.30;99.90
11511;DHT22;5812;48.864;9.190;2022-10-18T00:17:40;14.20;99.90
11511;DHT22;5812;48.864;9.190;2022-10-18T00:20:06;14.10;99.90
11511;DHT22;5812;48.864;9.190;2022-10-18T00:22:34;14.10;99.90
11511;DHT22;5812;48.864;9.190;2022-10-18T00:25:00;14.20;99.90
11511;DHT22;5812;48.864;9.190;2022-10-18T00:27:28;14.00;99.90
11511;DHT22;5812;48.864;9.190;2022-10-18T00:29:54;14.00;99.90
11511;DHT22;5812;48.864;9.190;2022-10-18T00:32:20;13.90;99.90
11511;DHT22;5812;48.864;9.190;2022-10-18T00:34:45;13.80;99.90
11511;DHT22;5812;48.864;9.190;2022-10-18T00:37:11;13.80;99.90
11511;DHT22;5812;48.864;9.190;2022-10-18T00:39:36;13.90;99.90
11511;DHT22;5812;48.864;9.190;2022-10-18T00:42:02;14.00;99.90
11511;DHT22;5812;48.864;9.190;2022-10-18T00:47:02;14.10;99.90
11511;DHT22;5812;48.864;9.190;2022-10-18T00:49:35;14.00;99.90
11511;DHT22;5812;48.864;9.190;2022-10-18T00:54:31;14.10;99.90
11511;DHT22;5812;48.864;9.190;2022-10-18T00:56:58;14.20;99.90
11511;DHT22;5812;48.864;9.190;2022-10-18T00:59:24;14.30;99.90
11511;DHT22;5812;48.864;9.190;2022-10-18T01:01:50;14.20;99.90
11511;DHT22;5812;48.864;9.190;2022-10-18T01:04:17;14.20;99.90
11511;DHT22;5812;48.864;9.190;2022-10-18T01:06:52;14.20;99.90
11511;DHT22;5812;48.864;9.190;2022-10-18T01:15:11;14.20;99.90
11511;DHT22;5812;48.864;9.190;2022-10-18T01:26:38;14.10;99.90
11511;DHT22;5812;48.864;9.190;2022-10-18T01:31:57;14.00;99.90
11511;DHT22;5812;48.864;9.190;2022-10-18T01:34:25;14.00;99.90
11511;DHT22;5812;48.864;9.190;2022-10-18T01:36:53;14.00;99.90
11511;DHT22;5812;48.864;9.190;2022-10-18T01:39:23;14.10;99.90
11511;DHT22;5812;48.864;9.190;2022-10-18T01:41:52;14.10;99.90
11511;DHT22;5812;48.864;9.190;2022-10-18T01:44:22;14.00;99.90
11511;DHT22;5812;48.864;9.190;2022-10-18T01:46:52;14.00;99.90
11511;DHT22;5812;48.864;9.190;2022-10-18T01:49:19;14.00;99.90
11511;DHT22;5812;48.864;9.190;2022-10-18T01:51:45;14.00;99.90
11511;DHT22;5812;48.864;9.190;2022-10-18T01:54:14;14.00;99.90
11511;DHT22;5812;48.864;9.190;2022-10-18T01:56:53;14.00;99.90
11511;DHT22;5812;48.864;9.190;2022-10-18T02:07:54;13.90;99.90
11511;DHT22;5812;48.864;9.190;2022-10-18T02:10:40;13.90;99.90
11511;DHT22;5812;48.864;9.190;2022-10-18T02:13:09;13.80;99.90
11511;DHT22;5812;48.864;9.190;2022-10-18T02:15:38;13.80;99.90
11511;DHT22;5812;48.864;9.190;2022-10-18T02:18:09;13.80;99.90
11511;DHT22;5812;48.864;9.190;2022-10-18T02:20:37;13.80;99.90
11511;DHT22;5812;48.864;9.190;2022-10-18T02:23:06;13.80;99.90
11511;DHT22;5812;48.864;9.190;2022-10-18T02:25:33;13.90;99.90
11511;DHT22;5812;48.864;9.190;2022-10-18T02:28:00;13.90;99.90
11511;DHT22;5812;48.864;9.190;2022-10-18T02:30:34;14.00;99.90
11511;DHT22;5812;48.864;9.190;2022-10-18T02:33:14;13.90;99.90
11511;DHT22;5812;48.864;9.190;2022-10-18T02:35:46;13.80;99.90
11511;DHT22;5812;48.864;9.190;2022-10-18T02:38:15;13.80;99.90
11511;DHT22;5812;48.864;9.190;2022-10-18T02:40:41;13.80;99.90
11511;DHT22;5812;48.864;9.190;2022-10-18T02:43:07;13.80;99.90
11511;DHT22;5812;48.864;9.190;2022-10-18T02:45:33;13.80;99.90
11511;DHT22;5812;48.864;9.190;2022-10-18T02:47:58;13.90;99.90
11511;DHT22;5812;48.864;9.190;2022-10-18T02:50:24;13.90;99.90
11511;DHT22;5812;48.864;9.190;2022-10-18T02:52:50;14.00;99.90
11511;DHT22;5812;48.864;9.190;2022-10-18T02:55:15;14.10;99.90
11511;DHT22;5812;48.864;9.190;2022-10-18T02:57:41;14.10;99.90
11511;DHT22;5812;48.864;9.190;2022-10-18T03:00:07;14.10;99.90
11511;DHT22;5812;48.864;9.190;2022-10-18T03:02:33;14.10;99.90
11511;DHT22;5812;48.864;9.190;2022-10-18T03:04:59;14.30;99.90
11511;DHT22;5812;48.864;9.190;2022-10-18T03:07:25;14.20;99.90
11511;DHT22;5812;48.864;9.190;2022-10-18T03:09:50;14.30;99.90
11511;DHT22;5812;48.864;9.190;2022-10-18T03:12:16;14.20;99.90
11511;DHT22;5812;48.864;9.190;2022-10-18T03:14:41;14.20;99.90
11511;DHT22;5812;48.864;9.190;2022-10-18T03:17:07;14.10;99.90
11511;DHT22;5812;48.864;9.190;2022-10-18T03:19:33;14.10;99.90
11511;DHT22;5812;48.864;9.190;2022-10-18T03:21:58;14.10;99.90
11511;DHT22;5812;48.864;9.190;2022-10-18T03:24:24;14.10;99.90
11511;DHT22;5812;48.864;9.190;2022-10-18T03:26:49;14.10;99.90
11511;DHT22;5812;48.864;9.190;2022-10-18T03:29:15;14.00;99.90
11511;DHT22;5812;48.864;9.190;2022-10-18T03:31:41;13.90;99.90
11511;DHT22;5812;48.864;9.190;2022-10-18T03:34:06;13.90;99.90
11511;DHT22;5812;48.864;9.190;2022-10-18T03:36:32;14.10;99.90
11511;DHT22;5812;48.864;9.190;2022-10-18T03:38:58;14.00;99.90
11511;DHT22;5812;48.864;9.190;2022-10-18T03:41:24;14.00;99.90
11511;DHT22;5812;48.864;9.190;2022-10-18T03:43:49;13.80;99.90
11511;DHT22;5812;48.864;9.190;2022-10-18T03:46:15;13.80;99.90
11511;DHT22;5812;48.864;9.190;2022-10-18T03:48:41;14.00;99.90
11511;DHT22;5812;48.864;9.190;2022-10-18T03:51:06;13.90;99.90
11511;DHT22;5812;48.864;9.190;2022-10-18T03:53:32;13.90;99.90
11511;DHT22;5812;48.864;9.190;2022-10-18T03:55:58;14.00;99.90
11511;DHT22;5812;48.864;9.190;2022-10-18T03:58:23;14.00;99.90
11511;DHT22;5812;48.864;9.190;2022-10-18T04:00:50;13.90;99.90
11511;DHT22;5812;48.864;9.190;2022-10-18T04:03:17;13.90;99.90
11511;DHT22;5812;48.864;9.190;2022-10-18T04:05:44;13.70;99.90
11511;DHT22;5812;48.864;9.190;2022-10-18T04:08:10;13.60;99.90
11511;DHT22;5812;48.864;9.190;2022-10-18T04:10:37;13.60;99.90
11511;DHT22;5812;48.864;9.190;2022-10-18T04:13:03;13.70;99.90
11511;DHT22;5812;48.864;9.190;2022-10-18T04:15:29;13.60;99.90
11511;DHT22;5812;48.864;9.190;2022-10-18T04:17:54;13.70;99.90
11511;DHT22;5812;48.864;9.190;2022-10-18T04:20:22;13.70;99.90
11511;DHT22;5812;48.864;9.190;2022-10-18T04:22:48;13.70;99.90
11511;DHT22;5812;48.864;9.190;2022-10-18T04:25:14;13.90;99.90
11511;DHT22;5812;48.864;9.190;2022-10-18T04:27:40;14.00;99.90
11511;DHT22;5812;48.864;9.190;2022-10-18T04:30:06;14.20;99.90
11511;DHT22;5812;48.864;9.190;2022-10-18T04:32:31;14.20;99.90
11511;DHT22;5812;48.864;9.190;2022-10-18T04:34:59;14.20;99.90
11511;DHT22;5812;48.864;9.190;2022-10-18T04:37:24;14.20;99.90
11511;DHT22;5812;48.864;9.190;2022-10-18T04:39:50;14.30;99.90
11511;DHT22;5812;48.864;9.190;2022-10-18T04:42:16;14.30;99.90
11511;DHT22;5812;48.864;9.190;2022-10-18T04:44:41;14.20;99.90
11511;DHT22;5812;48.864;9.190;2022-10-18T04:47:07;14.20;99.90
11511;DHT22;5812;48.864;9.190;2022-10-18T04:49:32;14.20;99.90
11511;DHT22;5812;48.864;9.190;2022-10-18T04:51:58;14.10;99.90
11511;DHT22;5812;48.864;9.190;2022-10-18T04:54:23;14.00;99.90
11511;DHT22;5812;48.864;9.190;2022-10-18T04:56:49;14.00;99.90
11511;DHT22;5812;48.864;9.190;2022-10-18T04:59:14;13.90;99.90
11511;DHT22;5812;48.864;9.190;2022-10-18T05:01:40;13.80;99.90
11511;DHT22;5812;48.864;9.190;2022-10-18T05:04:06;13.80;99.90
11511;DHT22;5812;48.864;9.190;2022-10-18T05:06:31;13.70;99.90
11511;DHT22;5812;48.864;9.190;2022-10-18T05:08:57;13.50;99.90
11511;DHT22;5812;48.864;9.190;2022-10-18T05:11:22;13.50;99.90
11511;DHT22;5812;48.864;9.190;2022-10-18T05:13:48;13.40;99.90
11511;DHT22;5812;48.864;9.190;2022-10-18T05:16:13;13.50;99.90
11511;DHT22;5812;48.864;9.190;2022-10-18T05:18:40;13.50;99.90
11511;DHT22;5812;48.864;9.190;2022-10-18T05:21:07;13.40;99.90
11511;DHT22;5812;48.864;9.190;2022-10-18T05:23:33;13.30;99.90
11511;DHT22;5812;48.864;9.190;2022-10-18T05:26:03;13.30;99.90
11511;DHT22;5812;48.864;9.190;2022-10-18T05:28:29;13.20;99.90
11511;DHT22;5812;48.864;9.190;2022-10-18T05:30:58;13.10;99.90
11511;DHT22;5812;48.864;9.190;2022-10-18T05:33:24;13.00;99.90
11511;DHT22;5812;48.864;9.190;2022-10-18T05:35:50;13.00;99.90
11511;DHT22;5812;48.864;9.190;2022-10-18T05:38:15;12.90;99.90
11511;DHT22;5812;48.864;9.190;2022-10-18T05:40:41;12.90;99.90
11511;DHT22;5812;48.864;9.190;2022-10-18T05:43:06;12.90;99.90
11511;DHT22;5812;48.864;9.190;2022-10-18T05:45:32;12.90;99.90
11511;DHT22;5812;48.864;9.190;2022-10-18T05:47:57;12.80;99.90
11511;DHT22;5812;48.864;9.190;2022-10-18T05:50:23;12.80;99.90
11511;DHT22;5812;48.864;9.190;2022-10-18T05:52:48;12.70;99.90
11511;DHT22;5812;48.864;9.190;2022-10-18T05:55:14;12.60;99.90
11511;DHT22;5812;48.864;9.190;2022-10-18T05:57:40;12.60;99.90
11511;DHT22;5812;48.864;9.190;2022-10-18T06:00:06;12.60;99.90
11511;DHT22;5812;48.864;9.190;2022-10-18T06:02:31;12.70;99.90
11511;DHT22;5812;48.864;9.190;2022-10-18T06:04:57;12.70;99.90
11511;DHT22;5812;48.864;9.190;2022-10-18T06:07:22;12.70;99.90
11511;DHT22;5812;48.864;9.190;2022-10-18T06:09:48;12.60;99.90
11511;DHT22;5812;48.864;9.190;2022-10-18T06:12:13;12.60;99.90
11511;DHT22;5812;48.864;9.190;2022-10-18T06:14:39;12.60;99.90
11511;DHT22;5812;48.864;9.190;2022-10-18T06:17:05;12.60;99.90
11511;DHT22;5812;48.864;9.190;2022-10-18T06:19:30;12.60;99.90
11511;DHT22;5812;48.864;9.190;2022-10-18T06:21:56;12.80;99.90
11511;DHT22;5812;48.864;9.190;2022-10-18T06:24:21;12.80;99.90
11511;DHT22;5812;48.864;9.190;2022-10-18T06:26:47;12.90;99.90
11511;DHT22;5812;48.864;9.190;2022-10-18T06:29:13;13.10;99.90
11511;DHT22;5812;48.864;9.190;2022-10-18T06:31:39;13.20;99.90
11511;DHT22;5812;48.864;9.190;2022-10-18T06:34:04;13.50;99.90
11511;DHT22;5812;48.864;9.190;2022-10-18T06:36:30;13.60;99.90
11511;DHT22;5812;48.864;9.190;2022-10-18T06:38:56;13.70;99.90
11511;DHT22;5812;48.864;9.190;2022-10-18T06:41:22;13.90;99.90
11511;DHT22;5812;48.864;9.190;2022-10-18T06:43:48;13.90;99.90
11511;DHT22;5812;48.864;9.190;2022-10-18T06:46:14;14.00;99.90
11511;DHT22;5812;48.864;9.190;2022-10-18T06:48:39;14.00;99.90
11511;DHT22;5812;48.864;9.190;2022-10-18T06:51:06;14.10;99.90
11511;DHT22;5812;48.864;9.190;2022-10-18T06:53:35;14.20;99.90
11511;DHT22;5812;48.864;9.190;2022-10-18T06:56:03;14.20;99.90
11511;DHT22;5812;48.864;9.190;2022-10-18T06:58:29;14.30;99.90
11511;DHT22;5812;48.864;9.190;2022-10-18T07:00:55;14.30;99.90
11511;DHT22;5812;48.864;9.190;2022-10-18T07:03:21;14.30;99.90
11511;DHT22;5812;48.864;9.190;2022-10-18T07:05:48;14.40;99.90
11511;DHT22;5812;48.864;9.190;2022-10-18T07:08:13;14.50;99.90
11511;DHT22;5812;48.864;9.190;2022-10-18T07:10:39;14.60;99.90
11511;DHT22;5812;48.864;9.190;2022-10-18T07:13:05;14.60;99.90
11511;DHT22;5812;48.864;9.190;2022-10-18T07:15:30;14.70;99.90
11511;DHT22;5812;48.864;9.190;2022-10-18T07:17:56;14.80;99.90
11511;DHT22;5812;48.864;9.190;2022-10-18T07:20:22;14.80;99.90
11511;DHT22;5812;48.864;9.190;2022-10-18T07:22:47;14.80;99.90
11511;DHT22;5812;48.864;9.190;2022-10-18T07:25:13;14.90;99.90
11511;DHT22;5812;48.864;9.190;2022-10-18T07:27:40;15.00;99.90
11511;DHT22;5812;48.864;9.190;2022-10-18T07:30:08;15.00;99.90
11511;DHT22;5812;48.864;9.190;2022-10-18T07:32:34;15.10;99.90
11511;DHT22;5812;48.864;9.190;2022-10-18T07:35:00;15.20;99.90
11511;DHT22;5812;48.864;9.190;2022-10-18T07:37:27;15.30;99.90
11511;DHT22;5812;48.864;9.190;2022-10-18T07:39:53;15.50;99.90
11511;DHT22;5812;48.864;9.190;2022-10-18T07:42:18;15.60;99.90
11511;DHT22;5812;48.864;9.190;2022-10-18T07:44:44;15.80;99.90
11511;DHT22;5812;48.864;9.190;2022-10-18T07:47:09;15.70;99.90
11511;DHT22;5812;48.864;9.190;2022-10-18T07:49:35;15.80;99.90
11511;DHT22;5812;48.864;9.190;2022-10-18T07:52:01;16.00;99.90
11511;DHT22;5812;48.864;9.190;2022-10-18T07:54:26;16.10;99.90
11511;DHT22;5812;48.864;9.190;2022-10-18T07:56:52;16.10;99.90
11511;DHT22;5812;48.864;9.190;2022-10-18T07:59:17;16.30;99.90
11511;DHT22;5812;48.864;9.190;2022-10-18T08:01:43;16.40;99.90
11511;DHT22;5812;48.864;9.190;2022-10-18T08:04:09;16.60;99.90
11511;DHT22;5812;48.864;9.190;2022-10-18T08:06:34;16.80;99.90
11511;DHT22;5812;48.864;9.190;2022-10-18T08:09:00;17.00;99.90
11511;DHT22;5812;48.864;9.190;2022-10-18T08:11:25;17.20;99.90
11511;DHT22;5812;48.864;9.190;2022-10-18T08:13:52;17.30;99.90
11511;DHT22;5812;48.864;9.190;2022-10-18T08:16:21;17.20;99.90
11511;DHT22;5812;48.864;9.190;2022-10-18T08:18:47;17.20;99.90
11511;DHT22;5812;48.864;9.190;2022-10-18T08:21:14;17.30;99.90
11511;DHT22;5812;48.864;9.190;2022-10-18T08:23:40;17.30;99.90
11511;DHT22;5812;48.864;9.190;2022-10-18T08:26:12;17.50;71.30
11511;DHT22;5812;48.864;9.190;2022-10-18T08:28:38;17.70;94.90
11511;DHT22;5812;48.864;9.190;2022-10-18T08:31:12;17.80;99.90
11511;DHT22;5812;48.864;9.190;2022-10-18T08:33:39;17.90;96.50
11511;DHT22;5812;48.864;9.190;2022-10-18T08:36:06;18.00;1.00
11511;DHT22;5812;48.864;9.190;2022-10-18T08:38:33;18.10;1.00
11511;DHT22;5812;48.864;9.190;2022-10-18T08:41:11;18.30;1.00
11511;DHT22;5812;48.864;9.190;2022-10-18T08:44:03;18.40;4.20
11511;DHT22;5812;48.864;9.190;2022-10-18T08:46:31;18.40;38.50
11511;DHT22;5812;48.864;9.190;2022-10-18T08:48:57;18.50;84.00
11511;DHT22;5812;48.864;9.190;2022-10-18T08:51:28;18.60;99.90
11511;DHT22;5812;48.864;9.190;2022-10-18T08:54:20;18.70;99.90
11511;DHT22;5812;48.864;9.190;2022-10-18T08:57:03;18.90;1.00
11511;DHT22;5812;48.864;9.190;2022-10-18T08:59:37;19.20;1.00
11511;DHT22;5812;48.864;9.190;2022-10-18T09:07:19;19.20;1.00
11511;DHT22;5812;48.864;9.190;2022-10-18T09:12:54;19.00;1.00
11511;DHT22;5812;48.864;9.190;2022-10-18T09:15:43;19.50;1.00
11511;DHT22;5812;48.864;9.190;2022-10-18T09:20:58;20.00;99.90
11511;DHT22;5812;48.864;9.190;2022-10-18T09:23:47;19.70;99.90
11511;DHT22;5812;48.864;9.190;2022-10-18T09:26:17;19.10;99.90
11511;DHT22;5812;48.864;9.190;2022-10-18T09:31:29;18.90;1.00
11511;DHT22;5812;48.864;9.190;2022-10-18T09:34:07;18.80;1.00
11511;DHT22;5812;48.864;9.190;2022-10-18T09:36:37;18.90;1.00
11511;DHT22;5812;48.864;9.190;2022-10-18T09:39:14;19.10;1.00
11511;DHT22;5812;48.864;9.190;2022-10-18T09:41:47;19.20;1.00
11511;DHT22;5812;48.864;9.190;2022-10-18T09:46:51;19.30;1.00
11511;DHT22;5812;48.864;9.190;2022-10-18T09:49:23;19.30;1.00
11511;DHT22;5812;48.864;9.190;2022-10-18T09:51:52;20.00;99.90
11511;DHT22;5812;48.864;9.190;2022-10-18T09:54:30;20.10;99.90
11511;DHT22;5812;48.864;9.190;2022-10-18T09:57:08;19.20;1.00
11511;DHT22;5812;48.864;9.190;2022-10-18T09:59:47;18.90;1.00
11511;DHT22;5812;48.864;9.190;2022-10-18T10:02:19;19.80;1.00
11511;DHT22;5812;48.864;9.190;2022-10-18T10:04:49;20.50;99.90
11511;DHT22;5812;48.864;9.190;2022-10-18T10:07:21;21.00;99.90
11511;DHT22;5812;48.864;9.190;2022-10-18T10:10:12;21.30;1.00
11511;DHT22;5812;48.864;9.190;2022-10-18T10:12:39;21.70;1.00
11511;DHT22;5812;48.864;9.190;2022-10-18T10:15:21;21.70;99.90
11511;DHT22;5812;48.864;9.190;2022-10-18T10:18:02;21.80;99.90
11511;DHT22;5812;48.864;9.190;2022-10-18T10:20:42;21.70;99.90
11511;DHT22;5812;48.864;9.190;2022-10-18T10:25:54;22.30;99.90
11511;DHT22;5812;48.864;9.190;2022-10-18T10:28:23;22.60;1.00
11511;DHT22;5812;48.864;9.190;2022-10-18T10:30:50;22.40;99.90
11511;DHT22;5812;48.864;9.190;2022-10-18T10:35:58;22.20;99.90
11511;DHT22;5812;48.864;9.190;2022-10-18T10:38:27;22.20;99.90
11511;DHT22;5812;48.864;9.190;2022-10-18T10:40:53;22.10;99.90
11511;DHT22;5812;48.864;9.190;2022-10-18T10:43:31;22.30;99.90
11511;DHT22;5812;48.864;9.190;2022-10-18T10:46:15;22.60;99.90
11511;DHT22;5812;48.864;9.190;2022-10-18T10:48:56;22.60;99.90
11511;DHT22;5812;48.864;9.190;2022-10-18T10:51:34;22.40;99.90
11511;DHT22;5812;48.864;9.190;2022-10-18T10:54:18;23.00;99.90
11511;DHT22;5812;48.864;9.190;2022-10-18T10:59:43;23.00;99.90
11511;DHT22;5812;48.864;9.190;2022-10-18T11:04:39;23.20;99.90
11511;DHT22;5812;48.864;9.190;2022-10-18T11:09:49;23.10;99.90
11511;DHT22;5812;48.864;9.190;2022-10-18T11:12:27;23.30;99.90
11511;DHT22;5812;48.864;9.190;2022-10-18T11:25:27;24.90;46.40
11511;DHT22;5812;48.864;9.190;2022-10-18T11:28:02;25.40;34.70
11511;DHT22;5812;48.864;9.190;2022-10-18T11:30:43;25.20;16.40
11511;DHT22;5812;48.864;9.190;2022-10-18T11:36:06;24.90;20.80
11511;DHT22;5812;48.864;9.190;2022-10-18T11:38:58;24.30;18.50
11511;DHT22;5812;48.864;9.190;2022-10-18T11:41:36;25.90;1.00
11511;DHT22;5812;48.864;9.190;2022-10-18T11:44:25;23.40;58.50
11511;DHT22;5812;48.864;9.190;2022-10-18T11:47:08;23.20;98.40
11511;DHT22;5812;48.864;9.190;2022-10-18T11:52:50;22.40;99.90
11511;DHT22;5812;48.864;9.190;2022-10-18T12:01:05;26.30;1.00
11511;DHT22;5812;48.864;9.190;2022-10-18T12:06:17;26.10;1.00
11511;DHT22;5812;48.864;9.190;2022-10-18T12:08:48;26.40;1.00
11511;DHT22;5812;48.864;9.190;2022-10-18T12:11:28;25.90;1.00
11511;DHT22;5812;48.864;9.190;2022-10-18T12:13:59;26.10;1.00
11511;DHT22;5812;48.864;9.190;2022-10-18T12:16:29;25.40;1.00
11511;DHT22;5812;48.864;9.190;2022-10-18T12:18:57;26.10;1.00
11511;DHT22;5812;48.864;9.190;2022-10-18T12:21:26;27.30;1.00
11511;DHT22;5812;48.864;9.190;2022-10-18T12:26:28;25.40;1.00
11511;DHT22;5812;48.864;9.190;2022-10-18T12:29:09;23.70;50.70
11511;DHT22;5812;48.864;9.190;2022-10-18T12:39:43;25.80;2.00
11511;DHT22;5812;48.864;9.190;2022-10-18T12:42:24;25.50;1.00
11511;DHT22;5812;48.864;9.190;2022-10-18T12:45:00;24.90;9.00
11511;DHT22;5812;48.864;9.190;2022-10-18T12:47:28;25.70;1.00
11511;DHT22;5812;48.864;9.190;2022-10-18T12:49:57;26.30;1.00
11511;DHT22;5812;48.864;9.190;2022-10-18T12:52:25;25.70;1.00
11511;DHT22;5812;48.864;9.190;2022-10-18T12:55:12;25.10;3.30
11511;DHT22;5812;48.864;9.190;2022-10-18T13:05:52;25.20;1.00
11511;DHT22;5812;48.864;9.190;2022-10-18T13:21:45;24.00;18.40
11511;DHT22;5812;48.864;9.190;2022-10-18T13:30:14;22.50;99.90
11511;DHT22;5812;48.864;9.190;2022-10-18T13:35:41;21.70;99.90
11511;DHT22;5812;48.864;9.190;2022-10-18T13:41:14;21.20;99.90
11511;DHT22;5812;48.864;9.190;2022-10-18T13:44:25;21.10;99.90
11511;DHT22;5812;48.864;9.190;2022-10-18T14:01:03;20.50;1.00
11511;DHT22;5812;48.864;9.190;2022-10-18T14:06:11;20.20;26.80
11511;DHT22;5812;48.864;9.190;2022-10-18T14:08:45;20.10;88.60
11511;DHT22;5812;48.864;9.190;2022-10-18T14:23:03;20.30;99.90
11511;DHT22;5812;48.864;9.190;2022-10-18T14:25:34;20.20;10.70
11511;DHT22;5812;48.864;9.190;2022-10-18T14:30:30;20.10;99.90
11511;DHT22;5812;48.864;9.190;2022-10-18T14:32:56;20.10;99.90
11511;DHT22;5812;48.864;9.190;2022-10-18T14:35:26;20.10;99.90
11511;DHT22;5812;48.864;9.190;2022-10-18T14:37:53;20.10;99.90
11511;DHT22;5812;48.864;9.190;2022-10-18T14:40:37;20.00;68.70
11511;DHT22;5812;48.864;9.190;2022-10-18T14:45:30;19.80;99.90
11511;DHT22;5812;48.864;9.190;2022-10-18T14:48:06;19.70;99.90
11511;DHT22;5812;48.864;9.190;2022-10-18T14:50:32;19.60;99.90
11511;DHT22;5812;48.864;9.190;2022-10-18T14:53:04;19.60;99.90
11511;DHT22;5812;48.864;9.190;2022-10-18T14:55:30;19.60;99.90
11511;DHT22;5812;48.864;9.190;2022-10-18T14:57:57;19.60;99.90
11511;DHT22;5812;48.864;9.190;2022-10-18T15:00:35;19.60;99.90
11511;DHT22;5812;48.864;9.190;2022-10-18T15:03:03;19.60;99.90
11511;DHT22;5812;48.864;9.190;2022-10-18T15:05:30;19.60;99.90
11511;DHT22;5812;48.864;9.190;2022-10-18T15:07:56;19.60;99.90
11511;DHT22;5812;48.864;9.190;2022-10-18T15:10:30;19.50;99.90
11511;DHT22;5812;48.864;9.190;2022-10-18T15:12:57;19.60;99.90
11511;DHT22;5812;48.864;9.190;2022-10-18T15:15:29;19.50;99.90
11511;DHT22;5812;48.864;9.190;2022-10-18T15:17:56;19.50;99.90
11511;DHT22;5812;48.864;9.190;2022-10-18T15:20:29;19.40;99.90
11511;DHT22;5812;48.864;9.190;2022-10-18T15:23:26;19.40;99.90
11511;DHT22;5812;48.864;9.190;2022-10-18T15:25:59;19.30;99.90
11511;DHT22;5812;48.864;9.190;2022-10-18T15:28:31;19.30;99.90
11511;DHT22;5812;48.864;9.190;2022-10-18T15:31:00;19.20;99.90
11511;DHT22;5812;48.864;9.190;2022-10-18T15:33:27;19.20;99.90
11511;DHT22;5812;48.864;9.190;2022-10-18T15:36:08;19.20;99.90
11511;DHT22;5812;48.864;9.190;2022-10-18T15:38:34;19.20;99.90
11511;DHT22;5812;48.864;9.190;2022-10-18T15:41:02;19.10;99.90
11511;DHT22;5812;48.864;9.190;2022-10-18T15:43:47;19.10;99.90
11511;DHT22;5812;48.864;9.190;2022-10-18T15:46:29;19.10;99.90
11511;DHT22;5812;48.864;9.190;2022-10-18T15:49:25;19.00;99.90
11511;DHT22;5812;48.864;9.190;2022-10-18T15:52:35;19.00;99.90
11511;DHT22;5812;48.864;9.190;2022-10-18T15:54:35;19.00;1.00
11511;DHT22;5812;48.864;9.190;2022-10-18T15:57:08;18.90;1.00
11511;DHT22;5812;48.864;9.190;2022-10-18T15:59:34;18.90;99.90
11511;DHT22;5812;48.864;9.190;2022-10-18T16:02:01;18.90;99.90
11511;DHT22;5812;48.864;9.190;2022-10-18T16:04:31;19.00;99.90
11511;DHT22;5812;48.864;9.190;2022-10-18T16:06:58;18.90;99.90
11511;DHT22;5812;48.864;9.190;2022-10-18T16:09:26;18.80;99.90
11511;DHT22;5812;48.864;9.190;2022-10-18T16:11:52;18.80;99.90
11511;DHT22;5812;48.864;9.190;2022-10-18T16:14:19;18.80;99.90
11511;DHT22;5812;48.864;9.190;2022-10-18T16:16:45;18.70;99.90
11511;DHT22;5812;48.864;9.190;2022-10-18T16:19:15;18.60;99.90
11511;DHT22;5812;48.864;9.190;2022-10-18T16:21:43;18.70;99.90
11511;DHT22;5812;48.864;9.190;2022-10-18T16:24:08;18.50;1.00
11511;DHT22;5812;48.864;9.190;2022-10-18T16:26:34;18.60;1.00
11511;DHT22;5812;48.864;9.190;2022-10-18T16:29:00;18.50;99.90
11511;DHT22;5812;48.864;9.190;2022-10-18T16:31:29;18.60;99.90
11511;DHT22;5812;48.864;9.190;2022-10-18T16:33:55;18.50;1.00
11511;DHT22;5812;48.864;9.190;2022-10-18T16:36:27;18.40;1.00
11511;DHT22;5812;48.864;9.190;2022-10-18T16:38:54;18.50;99.90
11511;DHT22;5812;48.864;9.190;2022-10-18T16:41:20;18.40;1.00
11511;DHT22;5812;48.864;9.190;2022-10-18T16:43:47;18.40;1.00
11511;DHT22;5812;48.864;9.190;2022-10-18T16:46:28;18.30;1.00
11511;DHT22;5812;48.864;9.190;2022-10-18T16:48:54;18.30;1.00
11511;DHT22;5812;48.864;9.190;2022-10-18T16:51:19;18.30;1.00
11511;DHT22;5812;48.864;9.190;2022-10-18T16:53:46;18.40;99.90
11511;DHT22;5812;48.864;9.190;2022-10-18T16:56:23;18.40;99.90
11511;DHT22;5812;48.864;9.190;2022-10-18T16:58:50;18.20;1.00
11511;DHT22;5812;48.864;9.190;2022-10-18T17:01:18;18.30;1.00
11511;DHT22;5812;48.864;9.190;2022-10-18T17:03:44;18.20;1.00
11511;DHT22;5812;48.864;9.190;2022-10-18T17:08:40;18.10;1.00
11511;DHT22;5812;48.864;9.190;2022-10-18T17:11:05;18.00;1.00
11511;DHT22;5812;48.864;9.190;2022-10-18T17:13:31;17.90;1.00
11511;DHT22;5812;48.864;9.190;2022-10-18T17:15:58;17.80;1.00
11511;DHT22;5812;48.864;9.190;2022-10-18T17:18:24;17.90;1.00
11511;DHT22;5812;48.864;9.190;2022-10-18T17:20:55;17.80;1.00
11511;DHT22;5812;48.864;9.190;2022-10-18T17:23:23;17.70;18.90
11511;DHT22;5812;48.864;9.190;2022-10-18T17:25:49;17.80;12.00
11511;DHT22;5812;48.864;9.190;2022-10-18T17:28:17;17.70;24.00
11511;DHT22;5812;48.864;9.190;2022-10-18T17:30:43;17.70;41.30
11511;DHT22;5812;48.864;9.190;2022-10-18T17:33:10;17.70;54.50
11511;DHT22;5812;48.864;9.190;2022-10-18T17:35:36;17.60;56.40
11511;DHT22;5812;48.864;9.190;2022-10-18T17:38:02;17.70;59.80
11511;DHT22;5812;48.864;9.190;2022-10-18T17:40:29;17.60;80.00
11511;DHT22;5812;48.864;9.190;2022-10-18T17:42:54;17.50;91.60
11511;DHT22;5812;48.864;9.190;2022-10-18T17:45:20;17.50;90.90
11511;DHT22;5812;48.864;9.190;2022-10-18T17:47:47;17.50;96.00
11511;DHT22;5812;48.864;9.190;2022-10-18T17:50:13;17.40;99.90
11511;DHT22;5812;48.864;9.190;2022-10-18T17:52:40;17.30;99.90
11511;DHT22;5812;48.864;9.190;2022-10-18T17:55:06;17.20;99.90
11511;DHT22;5812;48.864;9.190;2022-10-18T17:57:32;17.20;99.90
11511;DHT22;5812;48.864;9.190;2022-10-18T17:59:57;17.10;99.90
11511;DHT22;5812;48.864;9.190;2022-10-18T18:02:24;17.30;99.90
11511;DHT22;5812;48.864;9.190;2022-10-18T18:04:49;17.20;99.90
11511;DHT22;5812;48.864;9.190;2022-10-18T18:07:17;17.10;99.90
11511;DHT22;5812;48.864;9.190;2022-10-18T18:09:43;17.10;99.90
11511;DHT22;5812;48.864;9.190;2022-10-18T18:12:09;17.00;99.90
11511;DHT22;5812;48.864;9.190;2022-10-18T18:14:34;16.90;99.90
11511;DHT22;5812;48.864;9.190;2022-10-18T18:17:00;16.90;99.90
11511;DHT22;5812;48.864;9.190;2022-10-18T18:19:26;16.80;99.90
11511;DHT22;5812;48.864;9.190;2022-10-18T18:21:51;16.60;99.90
11511;DHT22;5812;48.864;9.190;2022-10-18T18:24:20;16.50;99.90
11511;DHT22;5812;48.864;9.190;2022-10-18T18:26:50;16.40;99.90
11511;DHT22;5812;48.864;9.190;2022-10-18T18:29:17;16.40;99.90
11511;DHT22;5812;48.864;9.190;2022-10-18T18:31:42;16.30;99.90
11511;DHT22;5812;48.864;9.190;2022-10-18T18:34:08;16.30;99.90
11511;DHT22;5812;48.864;9.190;2022-10-18T18:36:34;16.30;99.90
11511;DHT22;5812;48.864;9.190;2022-10-18T18:39:00;16.20;99.90
11511;DHT22;5812;48.864;9.190;2022-10-18T18:41:27;16.10;99.90
11511;DHT22;5812;48.864;9.190;2022-10-18T18:43:55;15.90;99.90